sensor_id;sensor_type;location;lat;lon;timestamp;P1;durP1;ratioP1;P2;durP2;ratioP2
68475;SDS011;55464;48.266;14.188;2022-07-06T00:00:32;8.02;;;4.50;;
68475;SDS011;55464;48.266;14.188;2022-07-06T00:02:58;5.05;;;4.30;;
68475;SDS011;55464;48.266;14.188;2022-07-06T00:05:24;8.43;;;4.72;;
68475;SDS011;55464;48.266;14.188;2022-07-06T00:07:50;8.07;;;4.28;;
68475;SDS011;55464;48.266;14.188;2022-07-06T00:10:16;5.03;;;4.53;;
68475;SDS011;55464;48.266;14.188;2022-07-06T00:12:41;5.50;;;5.00;;
68475;SDS011;55464;48.266;14.188;2022-07-06T00:15:07;4.47;;;4.07;;
68475;SDS011;55464;48.266;14.188;2022-07-06T00:17:33;4.82;;;4.43;;
68475;SDS011;55464;48.266;14.188;2022-07-06T00:19:59;5.63;;;4.25;;
68475;SDS011;55464;48.266;14.188;2022-07-06T00:22:24;4.90;;;4.40;;
68475;SDS011;55464;48.266;14.188;2022-07-06T00:24:50;6.20;;;4.60;;
68475;SDS011;55464;48.266;14.188;2022-07-06T00:27:16;10.50;;;4.72;;
68475;SDS011;55464;48.266;14.188;2022-07-06T00:29:41;5.22;;;4.72;;
68475;SDS011;55464;48.266;14.188;2022-07-06T00:32:09;5.70;;;5.07;;
68475;SDS011;55464;48.266;14.188;2022-07-06T00:34:38;5.78;;;4.80;;
68475;SDS011;55464;48.266;14.188;2022-07-06T00:37:07;5.22;;;4.82;;
68475;SDS011;55464;48.266;14.188;2022-07-06T00:39:33;5.28;;;4.88;;
68475;SDS011;55464;48.266;14.188;2022-07-06T00:41:59;5.88;;;4.68;;
68475;SDS011;55464;48.266;14.188;2022-07-06T00:44:24;4.80;;;4.40;;
68475;SDS011;55464;48.266;14.188;2022-07-06T00:46:50;11.77;;;6.70;;
68475;SDS011;55464;48.266;14.188;2022-07-06T00:49:16;7.80;;;6.22;;
68475;SDS011;55464;48.266;14.188;2022-07-06T00:52:00;6.90;;;5.72;;
68475;SDS011;55464;48.266;14.188;2022-07-06T00:54:26;6.28;;;5.57;;
68475;SDS011;55464;48.266;14.188;2022-07-06T00:56:55;5.65;;;4.65;;
68475;SDS011;55464;48.266;14.188;2022-07-06T00:59:22;12.57;;;5.50;;
68475;SDS011;55464;48.266;14.188;2022-07-06T01:01:48;6.95;;;4.68;;
68475;SDS011;55464;48.266;14.188;2022-07-06T01:04:14;5.45;;;4.95;;
68475;SDS011;55464;48.266;14.188;2022-07-06T01:06:40;6.93;;;5.13;;
68475;SDS011;55464;48.266;14.188;2022-07-06T01:09:06;5.57;;;5.07;;
68475;SDS011;55464;48.266;14.188;2022-07-06T01:11:32;5.95;;;5.35;;
68475;SDS011;55464;48.266;14.188;2022-07-06T01:13:59;9.95;;;4.70;;
68475;SDS011;55464;48.266;14.188;2022-07-06T01:16:27;5.32;;;4.82;;
68475;SDS011;55464;48.266;14.188;2022-07-06T01:18:53;6.38;;;5.03;;
68475;SDS011;55464;48.266;14.188;2022-07-06T01:21:18;5.68;;;4.90;;
68475;SDS011;55464;48.266;14.188;2022-07-06T01:23:45;5.30;;;4.90;;
68475;SDS011;55464;48.266;14.188;2022-07-06T01:26:16;10.77;;;6.20;;
68475;SDS011;55464;48.266;14.188;2022-07-06T01:28:44;5.35;;;4.88;;
68475;SDS011;55464;48.266;14.188;2022-07-06T01:31:26;6.82;;;5.32;;
68475;SDS011;55464;48.266;14.188;2022-07-06T01:33:52;6.78;;;5.15;;
68475;SDS011;55464;48.266;14.188;2022-07-06T01:36:20;5.53;;;5.00;;
68475;SDS011;55464;48.266;14.188;2022-07-06T01:38:50;5.72;;;5.22;;
68475;SDS011;55464;48.266;14.188;2022-07-06T01:41:17;5.70;;;5.10;;
68475;SDS011;55464;48.266;14.188;2022-07-06T01:43:43;8.90;;;5.68;;
68475;SDS011;55464;48.266;14.188;2022-07-06T01:46:10;6.47;;;5.15;;
68475;SDS011;55464;48.266;14.188;2022-07-06T01:48:36;5.93;;;5.35;;
68475;SDS011;55464;48.266;14.188;2022-07-06T01:51:02;8.65;;;4.82;;
68475;SDS011;55464;48.266;14.188;2022-07-06T01:53:28;5.22;;;4.65;;
68475;SDS011;55464;48.266;14.188;2022-07-06T01:55:54;7.60;;;5.13;;
68475;SDS011;55464;48.266;14.188;2022-07-06T01:58:20;7.55;;;5.60;;
68475;SDS011;55464;48.266;14.188;2022-07-06T02:00:45;5.22;;;4.82;;
68475;SDS011;55464;48.266;14.188;2022-07-06T02:03:11;7.35;;;5.18;;
68475;SDS011;55464;48.266;14.188;2022-07-06T02:05:37;5.78;;;5.22;;
68475;SDS011;55464;48.266;14.188;2022-07-06T02:08:04;6.68;;;5.68;;
68475;SDS011;55464;48.266;14.188;2022-07-06T02:10:29;6.95;;;6.35;;
68475;SDS011;55464;48.266;14.188;2022-07-06T02:12:55;8.65;;;5.97;;
68475;SDS011;55464;48.266;14.188;2022-07-06T02:15:21;6.28;;;5.40;;
68475;SDS011;55464;48.266;14.188;2022-07-06T02:17:46;8.15;;;5.28;;
68475;SDS011;55464;48.266;14.188;2022-07-06T02:20:12;6.78;;;6.13;;
68475;SDS011;55464;48.266;14.188;2022-07-06T02:22:38;9.52;;;6.65;;
68475;SDS011;55464;48.266;14.188;2022-07-06T02:25:03;6.55;;;5.65;;
68475;SDS011;55464;48.266;14.188;2022-07-06T02:27:29;7.95;;;6.07;;
68475;SDS011;55464;48.266;14.188;2022-07-06T02:29:55;6.47;;;5.90;;
68475;SDS011;55464;48.266;14.188;2022-07-06T02:32:21;7.63;;;6.05;;
68475;SDS011;55464;48.266;14.188;2022-07-06T02:34:47;7.88;;;5.75;;
68475;SDS011;55464;48.266;14.188;2022-07-06T02:37:12;8.23;;;5.70;;
68475;SDS011;55464;48.266;14.188;2022-07-06T02:39:38;6.93;;;5.55;;
68475;SDS011;55464;48.266;14.188;2022-07-06T02:42:04;11.57;;;5.50;;
68475;SDS011;55464;48.266;14.188;2022-07-06T02:44:30;7.70;;;6.30;;
68475;SDS011;55464;48.266;14.188;2022-07-06T02:46:55;7.95;;;6.38;;
68475;SDS011;55464;48.266;14.188;2022-07-06T02:49:21;8.13;;;7.32;;
68475;SDS011;55464;48.266;14.188;2022-07-06T02:51:47;7.78;;;6.22;;
68475;SDS011;55464;48.266;14.188;2022-07-06T02:54:12;7.95;;;6.75;;
68475;SDS011;55464;48.266;14.188;2022-07-06T02:56:38;7.18;;;6.35;;
68475;SDS011;55464;48.266;14.188;2022-07-06T02:59:03;7.30;;;6.57;;
68475;SDS011;55464;48.266;14.188;2022-07-06T03:01:29;7.28;;;6.57;;
68475;SDS011;55464;48.266;14.188;2022-07-06T03:03:55;7.20;;;5.93;;
68475;SDS011;55464;48.266;14.188;2022-07-06T03:06:21;7.18;;;6.45;;
68475;SDS011;55464;48.266;14.188;2022-07-06T03:08:46;6.57;;;5.97;;
68475;SDS011;55464;48.266;14.188;2022-07-06T03:11:12;6.90;;;6.20;;
68475;SDS011;55464;48.266;14.188;2022-07-06T03:13:37;8.10;;;5.95;;
68475;SDS011;55464;48.266;14.188;2022-07-06T03:16:03;7.47;;;5.82;;
68475;SDS011;55464;48.266;14.188;2022-07-06T03:18:29;7.85;;;6.13;;
68475;SDS011;55464;48.266;14.188;2022-07-06T03:20:55;8.35;;;6.65;;
68475;SDS011;55464;48.266;14.188;2022-07-06T03:23:20;6.85;;;6.15;;
68475;SDS011;55464;48.266;14.188;2022-07-06T03:25:46;6.95;;;6.35;;
68475;SDS011;55464;48.266;14.188;2022-07-06T03:28:12;8.23;;;6.80;;
68475;SDS011;55464;48.266;14.188;2022-07-06T03:30:38;8.77;;;7.97;;
68475;SDS011;55464;48.266;14.188;2022-07-06T03:33:03;12.10;;;8.60;;
68475;SDS011;55464;48.266;14.188;2022-07-06T03:35:29;10.80;;;8.70;;
68475;SDS011;55464;48.266;14.188;2022-07-06T03:37:54;8.50;;;7.60;;
68475;SDS011;55464;48.266;14.188;2022-07-06T03:40:20;8.65;;;7.45;;
68475;SDS011;55464;48.266;14.188;2022-07-06T03:42:46;8.60;;;7.05;;
68475;SDS011;55464;48.266;14.188;2022-07-06T03:45:11;10.63;;;6.47;;
68475;SDS011;55464;48.266;14.188;2022-07-06T03:47:37;8.95;;;6.25;;
68475;SDS011;55464;48.266;14.188;2022-07-06T03:50:03;8.63;;;7.18;;
68475;SDS011;55464;48.266;14.188;2022-07-06T03:52:29;8.63;;;6.80;;
68475;SDS011;55464;48.266;14.188;2022-07-06T03:54:55;6.85;;;6.25;;
68475;SDS011;55464;48.266;14.188;2022-07-06T03:57:21;8.32;;;6.20;;
68475;SDS011;55464;48.266;14.188;2022-07-06T03:59:47;7.80;;;6.95;;
68475;SDS011;55464;48.266;14.188;2022-07-06T04:02:12;8.65;;;7.43;;
68475;SDS011;55464;48.266;14.188;2022-07-06T04:04:38;7.30;;;6.60;;
68475;SDS011;55464;48.266;14.188;2022-07-06T04:07:04;8.30;;;6.43;;
68475;SDS011;55464;48.266;14.188;2022-07-06T04:09:29;11.95;;;5.75;;
68475;SDS011;55464;48.266;14.188;2022-07-06T04:11:56;6.55;;;5.35;;
68475;SDS011;55464;48.266;14.188;2022-07-06T04:14:21;5.78;;;4.60;;
68475;SDS011;55464;48.266;14.188;2022-07-06T04:16:47;5.35;;;4.18;;
68475;SDS011;55464;48.266;14.188;2022-07-06T04:19:13;4.70;;;4.30;;
68475;SDS011;55464;48.266;14.188;2022-07-06T04:21:39;4.07;;;3.72;;
68475;SDS011;55464;48.266;14.188;2022-07-06T04:24:04;4.18;;;3.88;;
68475;SDS011;55464;48.266;14.188;2022-07-06T04:26:30;3.85;;;3.53;;
68475;SDS011;55464;48.266;14.188;2022-07-06T04:28:56;4.72;;;3.97;;
68475;SDS011;55464;48.266;14.188;2022-07-06T04:31:22;4.22;;;3.83;;
68475;SDS011;55464;48.266;14.188;2022-07-06T04:33:47;3.40;;;3.15;;
68475;SDS011;55464;48.266;14.188;2022-07-06T04:36:13;3.38;;;3.08;;
68475;SDS011;55464;48.266;14.188;2022-07-06T04:38:39;3.17;;;2.97;;
68475;SDS011;55464;48.266;14.188;2022-07-06T04:41:05;3.60;;;3.30;;
68475;SDS011;55464;48.266;14.188;2022-07-06T04:43:30;3.97;;;3.67;;
68475;SDS011;55464;48.266;14.188;2022-07-06T04:45:56;4.65;;;4.25;;
68475;SDS011;55464;48.266;14.188;2022-07-06T04:48:22;5.78;;;4.78;;
68475;SDS011;55464;48.266;14.188;2022-07-06T04:50:48;5.57;;;5.07;;
68475;SDS011;55464;48.266;14.188;2022-07-06T04:53:13;5.55;;;5.05;;
68475;SDS011;55464;48.266;14.188;2022-07-06T04:55:39;9.35;;;5.47;;
68475;SDS011;55464;48.266;14.188;2022-07-06T04:58:05;7.15;;;6.43;;
68475;SDS011;55464;48.266;14.188;2022-07-06T05:00:30;9.43;;;7.18;;
68475;SDS011;55464;48.266;14.188;2022-07-06T05:02:56;8.15;;;7.32;;
68475;SDS011;55464;48.266;14.188;2022-07-06T05:05:22;10.00;;;8.60;;
68475;SDS011;55464;48.266;14.188;2022-07-06T05:07:48;11.57;;;9.15;;
68475;SDS011;55464;48.266;14.188;2022-07-06T05:10:13;10.15;;;9.00;;
68475;SDS011;55464;48.266;14.188;2022-07-06T05:12:39;13.05;;;9.63;;
68475;SDS011;55464;48.266;14.188;2022-07-06T05:15:05;10.95;;;9.13;;
68475;SDS011;55464;48.266;14.188;2022-07-06T05:17:32;10.48;;;9.05;;
68475;SDS011;55464;48.266;14.188;2022-07-06T05:19:58;15.60;;;10.38;;
68475;SDS011;55464;48.266;14.188;2022-07-06T05:22:24;13.80;;;10.43;;
68475;SDS011;55464;48.266;14.188;2022-07-06T05:24:50;14.50;;;10.18;;
68475;SDS011;55464;48.266;14.188;2022-07-06T05:27:16;10.73;;;8.85;;
68475;SDS011;55464;48.266;14.188;2022-07-06T05:29:41;12.65;;;8.88;;
68475;SDS011;55464;48.266;14.188;2022-07-06T05:32:07;12.68;;;8.55;;
68475;SDS011;55464;48.266;14.188;2022-07-06T05:34:33;9.55;;;7.90;;
68475;SDS011;55464;48.266;14.188;2022-07-06T05:37:01;8.23;;;7.25;;
68475;SDS011;55464;48.266;14.188;2022-07-06T05:39:27;7.85;;;6.40;;
68475;SDS011;55464;48.266;14.188;2022-07-06T05:41:53;8.80;;;7.65;;
68475;SDS011;55464;48.266;14.188;2022-07-06T05:44:18;9.85;;;7.63;;
68475;SDS011;55464;48.266;14.188;2022-07-06T05:46:45;9.50;;;8.50;;
68475;SDS011;55464;48.266;14.188;2022-07-06T05:49:11;11.77;;;7.50;;
68475;SDS011;55464;48.266;14.188;2022-07-06T05:51:55;8.07;;;7.25;;
68475;SDS011;55464;48.266;14.188;2022-07-06T05:54:20;10.40;;;9.07;;
68475;SDS011;55464;48.266;14.188;2022-07-06T05:56:46;8.48;;;7.57;;
68475;SDS011;55464;48.266;14.188;2022-07-06T05:59:12;10.10;;;8.52;;
68475;SDS011;55464;48.266;14.188;2022-07-06T06:01:37;10.55;;;8.70;;
68475;SDS011;55464;48.266;14.188;2022-07-06T06:04:03;10.75;;;8.65;;
68475;SDS011;55464;48.266;14.188;2022-07-06T06:06:29;12.10;;;9.40;;
68475;SDS011;55464;48.266;14.188;2022-07-06T06:08:56;11.38;;;9.38;;
68475;SDS011;55464;48.266;14.188;2022-07-06T06:11:22;13.52;;;9.30;;
68475;SDS011;55464;48.266;14.188;2022-07-06T06:13:47;10.00;;;8.43;;
68475;SDS011;55464;48.266;14.188;2022-07-06T06:16:13;9.27;;;8.38;;
68475;SDS011;55464;48.266;14.188;2022-07-06T06:18:40;9.18;;;8.27;;
68475;SDS011;55464;48.266;14.188;2022-07-06T06:21:06;9.45;;;8.55;;
68475;SDS011;55464;48.266;14.188;2022-07-06T06:23:32;9.75;;;8.75;;
68475;SDS011;55464;48.266;14.188;2022-07-06T06:25:57;12.15;;;9.95;;
68475;SDS011;55464;48.266;14.188;2022-07-06T06:28:23;11.95;;;9.45;;
68475;SDS011;55464;48.266;14.188;2022-07-06T06:30:48;9.43;;;7.90;;
68475;SDS011;55464;48.266;14.188;2022-07-06T06:33:15;11.00;;;8.05;;
68475;SDS011;55464;48.266;14.188;2022-07-06T06:35:51;8.57;;;7.40;;
68475;SDS011;55464;48.266;14.188;2022-07-06T06:38:19;9.88;;;8.00;;
68475;SDS011;55464;48.266;14.188;2022-07-06T06:40:46;11.75;;;7.40;;
68475;SDS011;55464;48.266;14.188;2022-07-06T06:43:12;8.00;;;6.43;;
68475;SDS011;55464;48.266;14.188;2022-07-06T06:45:38;10.23;;;7.00;;
68475;SDS011;55464;48.266;14.188;2022-07-06T06:48:04;7.20;;;6.50;;
68475;SDS011;55464;48.266;14.188;2022-07-06T06:50:30;8.30;;;6.13;;
68475;SDS011;55464;48.266;14.188;2022-07-06T06:52:55;8.77;;;5.10;;
68475;SDS011;55464;48.266;14.188;2022-07-06T06:55:21;7.25;;;4.75;;
68475;SDS011;55464;48.266;14.188;2022-07-06T06:57:47;5.35;;;3.95;;
68475;SDS011;55464;48.266;14.188;2022-07-06T07:00:13;4.97;;;3.25;;
68475;SDS011;55464;48.266;14.188;2022-07-06T07:02:39;6.32;;;3.20;;
68475;SDS011;55464;48.266;14.188;2022-07-06T07:05:05;4.05;;;2.88;;
68475;SDS011;55464;48.266;14.188;2022-07-06T07:07:31;3.50;;;2.80;;
68475;SDS011;55464;48.266;14.188;2022-07-06T07:09:58;3.60;;;3.10;;
68475;SDS011;55464;48.266;14.188;2022-07-06T07:12:24;3.38;;;2.85;;
68475;SDS011;55464;48.266;14.188;2022-07-06T07:14:49;4.10;;;2.90;;
68475;SDS011;55464;48.266;14.188;2022-07-06T07:17:15;3.17;;;2.80;;
68475;SDS011;55464;48.266;14.188;2022-07-06T07:19:41;3.85;;;2.55;;
68475;SDS011;55464;48.266;14.188;2022-07-06T07:22:07;2.40;;;2.20;;
68475;SDS011;55464;48.266;14.188;2022-07-06T07:24:32;3.05;;;2.28;;
68475;SDS011;55464;48.266;14.188;2022-07-06T07:26:58;6.03;;;2.33;;
68475;SDS011;55464;48.266;14.188;2022-07-06T07:29:24;4.55;;;2.42;;
68475;SDS011;55464;48.266;14.188;2022-07-06T07:31:49;3.47;;;2.33;;
68475;SDS011;55464;48.266;14.188;2022-07-06T07:34:15;2.88;;;2.13;;
68475;SDS011;55464;48.266;14.188;2022-07-06T07:36:42;2.90;;;2.00;;
68475;SDS011;55464;48.266;14.188;2022-07-06T07:39:07;2.22;;;2.13;;
68475;SDS011;55464;48.266;14.188;2022-07-06T07:41:33;3.17;;;1.98;;
68475;SDS011;55464;48.266;14.188;2022-07-06T07:43:59;4.20;;;2.22;;
68475;SDS011;55464;48.266;14.188;2022-07-06T07:46:24;3.92;;;2.13;;
68475;SDS011;55464;48.266;14.188;2022-07-06T07:48:50;4.93;;;2.03;;
68475;SDS011;55464;48.266;14.188;2022-07-06T07:51:16;5.18;;;2.50;;
68475;SDS011;55464;48.266;14.188;2022-07-06T07:53:43;2.20;;;1.83;;
68475;SDS011;55464;48.266;14.188;2022-07-06T07:56:09;3.95;;;2.28;;
68475;SDS011;55464;48.266;14.188;2022-07-06T07:58:35;3.20;;;2.40;;
68475;SDS011;55464;48.266;14.188;2022-07-06T08:01:00;2.85;;;2.22;;
68475;SDS011;55464;48.266;14.188;2022-07-06T08:03:26;2.03;;;1.88;;
68475;SDS011;55464;48.266;14.188;2022-07-06T08:05:52;2.42;;;2.03;;
68475;SDS011;55464;48.266;14.188;2022-07-06T08:08:18;4.20;;;2.00;;
68475;SDS011;55464;48.266;14.188;2022-07-06T08:10:44;1.77;;;1.40;;
68475;SDS011;55464;48.266;14.188;2022-07-06T08:13:09;1.60;;;1.45;;
68475;SDS011;55464;48.266;14.188;2022-07-06T08:15:36;1.40;;;1.30;;
68475;SDS011;55464;48.266;14.188;2022-07-06T08:18:01;1.77;;;1.65;;
68475;SDS011;55464;48.266;14.188;2022-07-06T08:20:27;2.17;;;1.42;;
68475;SDS011;55464;48.266;14.188;2022-07-06T08:22:53;1.45;;;1.10;;
68475;SDS011;55464;48.266;14.188;2022-07-06T08:25:19;1.45;;;1.35;;
68475;SDS011;55464;48.266;14.188;2022-07-06T08:27:44;5.13;;;1.60;;
68475;SDS011;55464;48.266;14.188;2022-07-06T08:30:10;3.63;;;1.77;;
68475;SDS011;55464;48.266;14.188;2022-07-06T08:32:38;4.20;;;1.60;;
68475;SDS011;55464;48.266;14.188;2022-07-06T08:35:04;3.70;;;1.40;;
68475;SDS011;55464;48.266;14.188;2022-07-06T08:37:30;5.43;;;1.73;;
68475;SDS011;55464;48.266;14.188;2022-07-06T08:39:56;2.45;;;1.65;;
68475;SDS011;55464;48.266;14.188;2022-07-06T08:42:22;2.85;;;2.03;;
68475;SDS011;55464;48.266;14.188;2022-07-06T08:44:54;3.17;;;1.70;;
68475;SDS011;55464;48.266;14.188;2022-07-06T08:47:21;1.70;;;1.60;;
68475;SDS011;55464;48.266;14.188;2022-07-06T08:49:48;1.70;;;1.60;;
68475;SDS011;55464;48.266;14.188;2022-07-06T08:52:14;2.33;;;1.52;;
68475;SDS011;55464;48.266;14.188;2022-07-06T08:54:40;2.97;;;1.40;;
68475;SDS011;55464;48.266;14.188;2022-07-06T08:57:06;2.83;;;1.70;;
68475;SDS011;55464;48.266;14.188;2022-07-06T08:59:32;2.65;;;1.45;;
68475;SDS011;55464;48.266;14.188;2022-07-06T09:01:58;3.60;;;2.00;;
68475;SDS011;55464;48.266;14.188;2022-07-06T09:04:25;4.80;;;1.83;;
68475;SDS011;55464;48.266;14.188;2022-07-06T09:06:51;2.63;;;1.70;;
68475;SDS011;55464;48.266;14.188;2022-07-06T09:09:20;2.83;;;1.52;;
68475;SDS011;55464;48.266;14.188;2022-07-06T09:11:47;3.35;;;1.90;;
68475;SDS011;55464;48.266;14.188;2022-07-06T09:14:15;2.60;;;1.90;;
68475;SDS011;55464;48.266;14.188;2022-07-06T09:16:41;3.08;;;1.63;;
68475;SDS011;55464;48.266;14.188;2022-07-06T09:19:09;3.30;;;1.67;;
68475;SDS011;55464;48.266;14.188;2022-07-06T09:21:36;3.00;;;1.60;;
68475;SDS011;55464;48.266;14.188;2022-07-06T09:24:05;3.78;;;1.75;;
68475;SDS011;55464;48.266;14.188;2022-07-06T09:26:32;2.25;;;1.80;;
68475;SDS011;55464;48.266;14.188;2022-07-06T09:28:59;3.92;;;2.00;;
68475;SDS011;55464;48.266;14.188;2022-07-06T09:31:24;7.97;;;1.92;;
68475;SDS011;55464;48.266;14.188;2022-07-06T09:33:55;4.97;;;1.50;;
68475;SDS011;55464;48.266;14.188;2022-07-06T09:36:36;2.33;;;1.88;;
68475;SDS011;55464;48.266;14.188;2022-07-06T09:39:15;2.03;;;1.80;;
68475;SDS011;55464;48.266;14.188;2022-07-06T09:41:52;2.03;;;1.80;;
68475;SDS011;55464;48.266;14.188;2022-07-06T09:46:56;2.63;;;1.70;;
68475;SDS011;55464;48.266;14.188;2022-07-06T09:49:24;4.43;;;2.40;;
68475;SDS011;55464;48.266;14.188;2022-07-06T09:51:51;2.67;;;1.80;;
68475;SDS011;55464;48.266;14.188;2022-07-06T09:54:21;1.92;;;1.65;;
68475;SDS011;55464;48.266;14.188;2022-07-06T09:56:48;1.88;;;1.48;;
68475;SDS011;55464;48.266;14.188;2022-07-06T09:59:21;2.08;;;1.90;;
68475;SDS011;55464;48.266;14.188;2022-07-06T10:01:55;1.63;;;1.52;;
68475;SDS011;55464;48.266;14.188;2022-07-06T10:06:55;6.43;;;1.80;;
68475;SDS011;55464;48.266;14.188;2022-07-06T10:09:23;4.80;;;1.70;;
68475;SDS011;55464;48.266;14.188;2022-07-06T10:11:53;2.88;;;1.77;;
68475;SDS011;55464;48.266;14.188;2022-07-06T10:14:22;4.47;;;1.85;;
68475;SDS011;55464;48.266;14.188;2022-07-06T10:16:48;2.15;;;1.70;;
68475;SDS011;55464;48.266;14.188;2022-07-06T10:19:16;2.03;;;1.55;;
68475;SDS011;55464;48.266;14.188;2022-07-06T10:21:43;2.97;;;1.80;;
68475;SDS011;55464;48.266;14.188;2022-07-06T10:24:09;3.17;;;2.25;;
68475;SDS011;55464;48.266;14.188;2022-07-06T10:26:37;4.93;;;1.80;;
68475;SDS011;55464;48.266;14.188;2022-07-06T10:29:04;5.05;;;1.80;;
68475;SDS011;55464;48.266;14.188;2022-07-06T10:31:31;1.60;;;1.50;;
68475;SDS011;55464;48.266;14.188;2022-07-06T10:33:59;3.40;;;2.20;;
68475;SDS011;55464;48.266;14.188;2022-07-06T10:36:27;5.53;;;1.80;;
68475;SDS011;55464;48.266;14.188;2022-07-06T10:38:53;2.88;;;1.92;;
68475;SDS011;55464;48.266;14.188;2022-07-06T10:41:29;3.65;;;1.75;;
68475;SDS011;55464;48.266;14.188;2022-07-06T10:43:56;2.13;;;1.65;;
68475;SDS011;55464;48.266;14.188;2022-07-06T10:46:23;1.77;;;1.52;;
68475;SDS011;55464;48.266;14.188;2022-07-06T10:48:54;6.70;;;1.73;;
68475;SDS011;55464;48.266;14.188;2022-07-06T10:53:57;2.15;;;1.55;;
68475;SDS011;55464;48.266;14.188;2022-07-06T10:56:32;2.75;;;1.60;;
68475;SDS011;55464;48.266;14.188;2022-07-06T10:59:12;6.43;;;1.60;;
68475;SDS011;55464;48.266;14.188;2022-07-06T11:01:38;4.47;;;1.67;;
68475;SDS011;55464;48.266;14.188;2022-07-06T11:04:05;1.88;;;1.67;;
68475;SDS011;55464;48.266;14.188;2022-07-06T11:06:33;2.38;;;1.30;;
68475;SDS011;55464;48.266;14.188;2022-07-06T11:09:01;2.63;;;1.40;;
68475;SDS011;55464;48.266;14.188;2022-07-06T11:14:02;2.58;;;1.60;;
68475;SDS011;55464;48.266;14.188;2022-07-06T11:16:34;3.83;;;1.60;;
68475;SDS011;55464;48.266;14.188;2022-07-06T11:19:12;2.50;;;1.67;;
68475;SDS011;55464;48.266;14.188;2022-07-06T11:21:39;2.35;;;1.52;;
68475;SDS011;55464;48.266;14.188;2022-07-06T11:24:26;10.32;;;1.48;;
68475;SDS011;55464;48.266;14.188;2022-07-06T11:26:54;1.30;;;1.20;;
68475;SDS011;55464;48.266;14.188;2022-07-06T11:29:22;3.45;;;1.63;;
68475;SDS011;55464;48.266;14.188;2022-07-06T11:31:53;2.47;;;1.33;;
68475;SDS011;55464;48.266;14.188;2022-07-06T11:34:24;1.45;;;1.35;;
68475;SDS011;55464;48.266;14.188;2022-07-06T11:36:55;3.78;;;1.58;;
68475;SDS011;55464;48.266;14.188;2022-07-06T11:39:22;2.25;;;1.40;;
68475;SDS011;55464;48.266;14.188;2022-07-06T11:41:51;4.80;;;1.50;;
68475;SDS011;55464;48.266;14.188;2022-07-06T11:44:19;5.28;;;2.15;;
68475;SDS011;55464;48.266;14.188;2022-07-06T11:46:44;4.72;;;1.55;;
68475;SDS011;55464;48.266;14.188;2022-07-06T11:49:10;2.92;;;1.58;;
68475;SDS011;55464;48.266;14.188;2022-07-06T11:51:37;3.10;;;1.52;;
68475;SDS011;55464;48.266;14.188;2022-07-06T11:54:16;5.45;;;1.40;;
68475;SDS011;55464;48.266;14.188;2022-07-06T11:56:53;1.70;;;1.60;;
68475;SDS011;55464;48.266;14.188;2022-07-06T11:59:24;1.70;;;1.48;;
68475;SDS011;55464;48.266;14.188;2022-07-06T12:04:31;2.38;;;1.42;;
68475;SDS011;55464;48.266;14.188;2022-07-06T12:07:01;2.15;;;1.20;;
68475;SDS011;55464;48.266;14.188;2022-07-06T12:09:29;5.00;;;1.30;;
68475;SDS011;55464;48.266;14.188;2022-07-06T12:11:56;1.60;;;1.40;;
68475;SDS011;55464;48.266;14.188;2022-07-06T12:14:22;5.07;;;1.30;;
68475;SDS011;55464;48.266;14.188;2022-07-06T12:16:48;5.07;;;1.70;;
68475;SDS011;55464;48.266;14.188;2022-07-06T12:19:15;2.90;;;1.42;;
68475;SDS011;55464;48.266;14.188;2022-07-06T12:21:48;2.55;;;1.40;;
68475;SDS011;55464;48.266;14.188;2022-07-06T12:24:25;1.95;;;1.05;;
68475;SDS011;55464;48.266;14.188;2022-07-06T12:26:58;1.45;;;1.33;;
68475;SDS011;55464;48.266;14.188;2022-07-06T12:29:34;7.60;;;1.33;;
68475;SDS011;55464;48.266;14.188;2022-07-06T12:31:59;1.83;;;1.30;;
68475;SDS011;55464;48.266;14.188;2022-07-06T12:34:27;2.63;;;1.70;;
68475;SDS011;55464;48.266;14.188;2022-07-06T12:37:02;3.70;;;1.52;;
68475;SDS011;55464;48.266;14.188;2022-07-06T12:39:31;3.42;;;1.35;;
68475;SDS011;55464;48.266;14.188;2022-07-06T12:42:01;2.78;;;1.42;;
68475;SDS011;55464;48.266;14.188;2022-07-06T12:44:28;3.20;;;1.48;;
68475;SDS011;55464;48.266;14.188;2022-07-06T12:47:07;4.43;;;1.58;;
68475;SDS011;55464;48.266;14.188;2022-07-06T12:49:35;3.28;;;1.77;;
68475;SDS011;55464;48.266;14.188;2022-07-06T12:52:08;3.15;;;1.33;;
68475;SDS011;55464;48.266;14.188;2022-07-06T12:54:37;2.45;;;1.58;;
68475;SDS011;55464;48.266;14.188;2022-07-06T12:57:09;1.98;;;1.30;;
68475;SDS011;55464;48.266;14.188;2022-07-06T12:59:40;2.42;;;1.45;;
68475;SDS011;55464;48.266;14.188;2022-07-06T13:02:44;2.28;;;1.20;;
68475;SDS011;55464;48.266;14.188;2022-07-06T13:07:31;3.35;;;1.40;;
68475;SDS011;55464;48.266;14.188;2022-07-06T13:12:27;1.60;;;1.30;;
68475;SDS011;55464;48.266;14.188;2022-07-06T13:14:52;1.50;;;1.40;;
68475;SDS011;55464;48.266;14.188;2022-07-06T13:17:18;4.93;;;1.58;;
68475;SDS011;55464;48.266;14.188;2022-07-06T13:19:44;2.47;;;1.40;;
68475;SDS011;55464;48.266;14.188;2022-07-06T13:22:09;3.58;;;1.40;;
68475;SDS011;55464;48.266;14.188;2022-07-06T13:24:35;2.05;;;1.13;;
68475;SDS011;55464;48.266;14.188;2022-07-06T13:27:01;2.65;;;1.40;;
68475;SDS011;55464;48.266;14.188;2022-07-06T13:29:27;3.60;;;1.50;;
68475;SDS011;55464;48.266;14.188;2022-07-06T13:31:52;2.33;;;1.20;;
68475;SDS011;55464;48.266;14.188;2022-07-06T13:34:18;2.40;;;1.27;;
68475;SDS011;55464;48.266;14.188;2022-07-06T13:36:44;5.47;;;1.67;;
68475;SDS011;55464;48.266;14.188;2022-07-06T13:39:10;2.10;;;1.25;;
68475;SDS011;55464;48.266;14.188;2022-07-06T13:41:36;1.00;;;1.00;;
68475;SDS011;55464;48.266;14.188;2022-07-06T13:44:02;1.80;;;1.20;;
68475;SDS011;55464;48.266;14.188;2022-07-06T13:46:28;1.23;;;1.13;;
68475;SDS011;55464;48.266;14.188;2022-07-06T13:48:54;2.45;;;1.35;;
68475;SDS011;55464;48.266;14.188;2022-07-06T13:51:21;1.70;;;1.35;;
68475;SDS011;55464;48.266;14.188;2022-07-06T13:53:47;3.70;;;1.05;;
68475;SDS011;55464;48.266;14.188;2022-07-06T13:56:13;4.63;;;1.10;;
68475;SDS011;55464;48.266;14.188;2022-07-06T13:58:39;4.90;;;1.65;;
68475;SDS011;55464;48.266;14.188;2022-07-06T14:01:04;1.92;;;1.30;;
68475;SDS011;55464;48.266;14.188;2022-07-06T14:03:30;1.42;;;1.33;;
68475;SDS011;55464;48.266;14.188;2022-07-06T14:05:57;1.98;;;1.30;;
68475;SDS011;55464;48.266;14.188;2022-07-06T14:08:24;1.02;;;1.02;;
68475;SDS011;55464;48.266;14.188;2022-07-06T14:10:51;1.30;;;1.20;;
68475;SDS011;55464;48.266;14.188;2022-07-06T14:13:18;2.60;;;1.35;;
68475;SDS011;55464;48.266;14.188;2022-07-06T14:15:44;1.10;;;1.00;;
68475;SDS011;55464;48.266;14.188;2022-07-06T14:18:10;2.15;;;1.20;;
68475;SDS011;55464;48.266;14.188;2022-07-06T14:20:36;1.40;;;1.10;;
68475;SDS011;55464;48.266;14.188;2022-07-06T14:23:01;2.85;;;1.35;;
68475;SDS011;55464;48.266;14.188;2022-07-06T14:25:27;3.10;;;1.15;;
68475;SDS011;55464;48.266;14.188;2022-07-06T14:27:53;3.65;;;1.23;;
68475;SDS011;55464;48.266;14.188;2022-07-06T14:30:18;1.20;;;1.08;;
68475;SDS011;55464;48.266;14.188;2022-07-06T14:32:44;0.98;;;0.98;;
68475;SDS011;55464;48.266;14.188;2022-07-06T14:35:10;2.25;;;1.20;;
68475;SDS011;55464;48.266;14.188;2022-07-06T14:37:37;1.48;;;1.20;;
68475;SDS011;55464;48.266;14.188;2022-07-06T14:40:02;1.30;;;1.20;;
68475;SDS011;55464;48.266;14.188;2022-07-06T14:42:28;2.38;;;1.30;;
68475;SDS011;55464;48.266;14.188;2022-07-06T14:44:54;2.25;;;1.30;;
68475;SDS011;55464;48.266;14.188;2022-07-06T14:47:20;2.78;;;1.13;;
68475;SDS011;55464;48.266;14.188;2022-07-06T14:49:46;1.80;;;1.40;;